createdAt,value
2019-05-02T00:00:12.895Z,7.60
2019-05-02T00:04:20.112Z,8.23
2019-05-02T00:08:22.665Z,7.03
2019-05-02T00:12:26.311Z,6.12
2019-05-02T00:16:30.549Z,4.22
2019-05-02T00:20:34.191Z,7.58
2019-05-02T00:24:39.176Z,7.08
2019-05-02T00:28:48.095Z,9.65
2019-05-02T00:32:48.293Z,8.55
2019-05-02T00:36:51.779Z,7.90
2019-05-02T00:40:57.437Z,10.15
2019-05-02T00:45:00.906Z,7.72
2019-05-02T00:49:04.437Z,8.75
2019-05-02T00:53:12.198Z,8.23
2019-05-02T00:57:14.962Z,6.95
2019-05-02T01:01:31.009Z,6.40
2019-05-02T01:05:38.470Z,6.50
2019-05-02T01:09:42.095Z,8.30
2019-05-02T01:13:45.665Z,6.28
2019-05-02T01:17:49.130Z,5.97
2019-05-02T01:21:52.598Z,7.05
2019-05-02T01:25:56.091Z,7.08
2019-05-02T01:30:10.074Z,5.70
2019-05-02T01:34:19.249Z,6.87
2019-05-02T01:38:26.247Z,4.45
2019-05-02T01:42:39.546Z,8.48
2019-05-02T01:46:35.468Z,5.53
2019-05-02T01:50:39.043Z,7.58
2019-05-02T01:54:45.677Z,8.43
2019-05-02T01:58:47.752Z,6.15
2019-05-02T02:02:51.278Z,10.23
2019-05-02T02:06:54.761Z,7.10
2019-05-02T02:10:58.427Z,8.80
2019-05-02T02:15:01.910Z,8.80
2019-05-02T02:19:16.091Z,6.62
2019-05-02T02:23:23.653Z,10.53
2019-05-02T02:27:27.150Z,11.90
2019-05-02T02:31:30.777Z,11.22
2019-05-02T02:35:34.553Z,8.53
2019-05-02T02:39:38.091Z,9.63
2019-05-02T02:43:42.029Z,7.25
2019-05-02T02:47:45.859Z,10.08
2019-05-02T02:51:49.680Z,9.18
2019-05-02T02:56:01.054Z,7.58
2019-05-02T03:00:06.297Z,9.38
2019-05-02T03:04:09.091Z,9.30
2019-05-02T03:08:10.070Z,8.40
2019-05-02T03:12:21.139Z,9.70
2019-05-02T03:20:39.985Z,8.55
2019-05-02T03:24:36.635Z,9.05
2019-05-02T03:28:39.784Z,10.35
2019-05-02T03:33:03.011Z,10.43
2019-05-02T03:36:48.472Z,9.20
2019-05-02T03:40:52.028Z,10.05
2019-05-02T03:45:00.222Z,8.93
2019-05-02T03:49:07.178Z,9.93
2019-05-02T03:53:06.547Z,10.08
2019-05-02T03:57:10.303Z,9.90
2019-05-02T04:01:14.155Z,10.15
2019-05-02T04:05:18.275Z,17.50
2019-05-02T04:09:32.023Z,16.27
2019-05-02T04:13:36.201Z,16.20
2019-05-02T04:17:40.056Z,10.05
2019-05-02T04:21:43.766Z,14.45
2019-05-02T04:25:48.566Z,15.48
2019-05-02T04:29:52.045Z,12.50
2019-05-02T04:33:55.866Z,16.12
2019-05-02T04:38:02.723Z,13.10
2019-05-02T04:42:13.186Z,14.55
2019-05-02T04:46:18.044Z,17.00
2019-05-02T04:50:18.559Z,14.95
2019-05-02T04:54:25.650Z,17.52
2019-05-02T04:58:29.672Z,22.13
2019-05-02T05:02:36.646Z,19.07
2019-05-02T05:06:38.071Z,21.68
2019-05-02T05:10:44.989Z,18.67
2019-05-02T05:14:47.534Z,16.57
2019-05-02T05:18:53.086Z,17.60
2019-05-02T05:22:58.113Z,19.65
2019-05-02T05:27:01.707Z,17.17
2019-05-02T05:31:07.509Z,21.82
2019-05-02T05:35:12.873Z,23.00
2019-05-02T05:39:17.585Z,20.85
2019-05-02T05:43:21.335Z,14.83
2019-05-02T05:47:24.826Z,23.52
2019-05-02T05:51:28.318Z,21.48
2019-05-02T05:55:32.204Z,22.02
2019-05-02T05:59:38.013Z,15.70
2019-05-02T06:03:44.863Z,20.65
2019-05-02T06:07:47.481Z,18.95
2019-05-02T06:11:55.415Z,26.30
2019-05-02T06:16:02.768Z,18.60
2019-05-02T06:20:01.803Z,20.48
2019-05-02T06:24:05.692Z,21.17
2019-05-02T06:28:09.329Z,20.35
2019-05-02T06:32:14.086Z,21.57
2019-05-02T06:36:18.382Z,18.95
2019-05-02T06:40:22.132Z,19.42
2019-05-02T06:44:25.637Z,20.77
2019-05-02T06:48:29.522Z,17.77
2019-05-02T06:52:34.624Z,23.42
2019-05-02T06:56:38.283Z,15.08
2019-05-02T07:00:56.792Z,17.65
2019-05-02T07:04:47.387Z,17.32
2019-05-02T07:08:50.969Z,23.15
2019-05-02T07:13:09.818Z,14.15
2019-05-02T07:17:05.838Z,17.62
2019-05-02T07:21:12.164Z,15.53
2019-05-02T07:25:18.038Z,18.00
2019-05-02T07:29:23.004Z,16.67
2019-05-02T07:33:26.602Z,18.20
2019-05-02T07:37:30.083Z,17.17
2019-05-02T07:41:33.569Z,16.25
2019-05-02T07:45:40.223Z,22.67
2019-05-02T07:49:42.687Z,19.35
2019-05-02T07:53:48.527Z,15.98
2019-05-02T07:57:52.050Z,19.60
2019-05-02T08:01:55.877Z,19.98
2019-05-02T08:06:00.041Z,19.57
2019-05-02T08:10:04.911Z,14.68
2019-05-02T08:14:08.465Z,16.30
2019-05-02T08:18:12.581Z,19.55
2019-05-02T08:22:16.179Z,16.65
2019-05-02T08:26:21.588Z,22.48
2019-05-02T08:30:26.507Z,16.62
2019-05-02T08:34:31.648Z,15.55
2019-05-02T08:38:35.466Z,16.12
2019-05-02T08:42:39.287Z,15.83
2019-05-02T08:46:46.132Z,20.15
2019-05-02T08:50:48.030Z,20.40
2019-05-02T08:54:51.537Z,12.98
2019-05-02T08:58:55.376Z,18.62
2019-05-02T09:03:02.536Z,20.97
2019-05-02T09:07:04.692Z,19.85
2019-05-02T09:11:08.150Z,21.20
2019-05-02T09:15:12.390Z,18.67
2019-05-02T09:19:21.319Z,21.52
2019-05-02T09:23:22.829Z,19.12
2019-05-02T09:27:26.824Z,19.70
2019-05-02T09:31:31.984Z,16.50
2019-05-02T09:35:35.667Z,20.52
2019-05-02T09:39:39.164Z,16.67
2019-05-02T09:43:42.711Z,12.35
2019-05-02T09:47:56.286Z,15.30
2019-05-02T09:51:59.296Z,18.77
2019-05-02T09:55:58.071Z,22.70
2019-05-02T10:00:02.206Z,23.02
2019-05-02T10:04:06.217Z,18.80
2019-05-02T10:08:13.466Z,27.80
2019-05-02T10:12:15.226Z,21.85
2019-05-02T10:16:25.616Z,18.50
2019-05-02T10:20:31.882Z,24.47
2019-05-02T10:24:29.611Z,25.08
2019-05-02T10:28:33.427Z,26.30
2019-05-02T10:32:36.920Z,26.75
2019-05-02T10:36:44.755Z,26.10
2019-05-02T10:40:48.494Z,24.47
2019-05-02T10:44:52.144Z,32.05
2019-05-02T10:49:01.970Z,24.95
2019-05-02T10:53:11.974Z,28.57
2019-05-02T10:57:12.606Z,24.33
2019-05-02T11:01:18.107Z,24.30
2019-05-02T11:05:26.457Z,24.77
2019-05-02T11:09:29.326Z,27.62
2019-05-02T11:13:53.348Z,24.15
2019-05-02T11:17:55.408Z,22.98
2019-05-02T11:21:59.306Z,21.17
2019-05-02T11:26:02.787Z,27.77
2019-05-02T11:30:09.180Z,23.10
2019-05-02T11:34:12.807Z,28.50
2019-05-02T11:38:43.549Z,29.00
2019-05-02T11:42:23.205Z,19.55
2019-05-02T11:46:27.198Z,23.60
2019-05-02T11:50:31.977Z,22.02
2019-05-02T11:54:39.180Z,20.23
2019-05-02T11:58:48.164Z,17.92
2019-05-02T12:02:56.271Z,27.45
2019-05-02T12:07:00.992Z,21.25
2019-05-02T12:11:03.864Z,21.62
2019-05-02T12:15:07.997Z,19.55
2019-05-02T12:19:14.725Z,18.48
2019-05-02T12:23:17.328Z,13.05
2019-05-02T12:27:22.067Z,18.07
2019-05-02T12:31:29.330Z,18.30
2019-05-02T12:35:32.818Z,17.10
2019-05-02T12:39:36.762Z,19.10
2019-05-02T12:43:41.615Z,19.07
2019-05-02T12:47:45.201Z,14.38
2019-05-02T12:51:48.933Z,20.05
2019-05-02T12:55:52.825Z,16.90
2019-05-02T12:59:56.377Z,19.62
2019-05-02T13:04:02.769Z,17.32
2019-05-02T13:08:06.427Z,19.43
2019-05-02T13:12:20.323Z,20.03
2019-05-02T13:16:24.075Z,13.58
2019-05-02T13:20:29.408Z,17.63
2019-05-02T13:24:34.676Z,19.67
2019-05-02T13:28:38.185Z,13.60
2019-05-02T13:32:43.445Z,13.22
2019-05-02T13:36:51.735Z,16.23
2019-05-02T13:40:55.272Z,13.10
2019-05-02T13:49:18.249Z,13.08
2019-05-02T13:53:22.659Z,14.68
2019-05-02T13:57:26.283Z,12.13
2019-05-02T14:01:31.567Z,12.50
2019-05-02T14:05:37.193Z,12.68
2019-05-02T14:09:44.041Z,12.73
2019-05-02T14:13:48.005Z,14.43
2019-05-02T14:17:52.473Z,14.05
2019-05-02T14:21:56.143Z,12.50
2019-05-02T14:25:59.628Z,17.62
2019-05-02T14:30:04.127Z,18.55
2019-05-02T14:34:24.598Z,12.25
2019-05-02T14:38:28.082Z,18.77
2019-05-02T14:42:32.274Z,16.60
2019-05-02T14:46:39.408Z,17.62
2019-05-02T14:50:45.547Z,17.02
2019-05-02T14:54:48.078Z,22.95
2019-05-02T14:58:52.798Z,20.48
2019-05-02T15:02:56.520Z,19.30
2019-05-02T15:07:02.040Z,16.95
2019-05-02T15:11:06.770Z,21.37
2019-05-02T15:15:12.238Z,22.60
2019-05-02T15:19:16.141Z,15.10
2019-05-02T15:23:20.074Z,22.40
2019-05-02T15:27:23.582Z,21.73
2019-05-02T15:31:31.662Z,17.48
2019-05-02T15:35:36.013Z,20.68
2019-05-02T15:43:49.035Z,18.92
2019-05-02T15:47:52.463Z,25.25
2019-05-02T15:51:55.727Z,16.73
2019-05-02T15:55:59.532Z,19.05
2019-05-02T16:00:05.651Z,23.83
2019-05-02T16:04:12.727Z,26.27
2019-05-02T16:08:16.441Z,20.68
2019-05-02T16:12:19.976Z,21.15
2019-05-02T16:16:23.453Z,18.87
2019-05-02T16:20:34.620Z,15.85
2019-05-02T16:24:38.128Z,21.55
2019-05-02T16:28:45.462Z,18.37
2019-05-02T16:32:52.260Z,23.73
2019-05-02T16:37:16.534Z,17.07
2019-05-02T16:41:18.071Z,16.77
2019-05-02T16:45:22.582Z,17.27
2019-05-02T16:49:26.093Z,15.68
2019-05-02T16:53:31.126Z,22.20
2019-05-02T16:57:35.279Z,15.35
2019-05-02T17:01:39.135Z,14.23
2019-05-02T17:05:44.114Z,17.82
2019-05-02T17:10:02.814Z,14.33
2019-05-02T17:14:11.595Z,14.10
2019-05-02T17:18:13.313Z,13.10
2019-05-02T17:22:21.952Z,8.85
2019-05-02T17:26:23.068Z,7.08
2019-05-02T17:30:30.894Z,8.93
2019-05-02T17:34:34.813Z,8.33
2019-05-02T17:38:37.425Z,13.53
2019-05-02T17:42:44.541Z,10.80
2019-05-02T17:46:50.733Z,7.30
2019-05-02T17:50:59.428Z,10.43
2019-05-02T17:55:03.974Z,7.15
2019-05-02T17:59:07.435Z,8.18
2019-05-02T18:03:12.419Z,10.43
2019-05-02T18:07:18.894Z,9.33
2019-05-02T18:11:22.691Z,6.33
2019-05-02T18:15:29.977Z,5.87
2019-05-02T18:19:31.651Z,5.05
2019-05-02T18:23:35.656Z,4.42
2019-05-02T18:27:39.201Z,3.35
2019-05-02T18:31:47.299Z,3.00
2019-05-02T18:35:52.502Z,1.85
2019-05-02T18:39:56.061Z,3.20
2019-05-02T18:44:00.056Z,2.52
2019-05-02T18:48:06.697Z,1.98
2019-05-02T18:52:09.344Z,6.50
2019-05-02T18:56:13.036Z,2.67
2019-05-02T19:00:17.179Z,1.60
2019-05-02T19:04:22.130Z,1.55
2019-05-02T19:08:31.340Z,3.10
2019-05-02T19:12:32.748Z,2.95
2019-05-02T19:16:36.669Z,3.02
2019-05-02T19:20:57.550Z,2.20
2019-05-02T19:25:01.926Z,2.47
2019-05-02T19:29:12.790Z,1.45
2019-05-02T19:33:13.387Z,2.40
2019-05-02T19:37:17.061Z,1.62
2019-05-02T19:41:22.191Z,3.80
2019-05-02T19:45:26.804Z,2.37
2019-05-02T19:49:32.475Z,1.25
2019-05-02T19:53:35.861Z,2.87
2019-05-02T19:58:07.331Z,5.08
2019-05-02T20:02:11.905Z,2.80
2019-05-02T20:06:16.036Z,2.60
2019-05-02T20:10:19.865Z,2.45
2019-05-02T20:14:24.614Z,2.55
2019-05-02T20:18:28.333Z,3.67
2019-05-02T20:22:36.178Z,4.95
2019-05-02T20:30:42.194Z,2.55
2019-05-02T20:34:46.154Z,3.00
2019-05-02T20:38:50.014Z,2.70
2019-05-02T20:42:53.680Z,2.87
2019-05-02T20:46:57.469Z,2.45
2019-05-02T20:51:02.666Z,5.90
2019-05-02T20:55:07.473Z,6.95
2019-05-02T20:59:12.759Z,2.60
2019-05-02T21:03:16.352Z,6.67
2019-05-02T21:07:27.808Z,3.77
2019-05-02T21:15:36.174Z,4.50
2019-05-02T21:19:41.683Z,2.45
2019-05-02T21:23:47.711Z,3.55
2019-05-02T21:27:52.235Z,2.47
2019-05-02T21:31:55.474Z,2.15
2019-05-02T21:35:58.954Z,4.03
2019-05-02T21:40:02.862Z,4.00
2019-05-02T21:44:06.427Z,4.90
2019-05-02T21:48:09.934Z,4.35
2019-05-02T21:52:15.041Z,5.15
2019-05-02T21:56:21.757Z,1.45
2019-05-02T22:00:38.559Z,2.70
2019-05-02T22:04:42.532Z,2.30
2019-05-02T22:08:46.112Z,2.65
2019-05-02T22:12:51.561Z,7.97
2019-05-02T22:16:54.872Z,12.05
2019-05-02T22:20:58.680Z,2.37
2019-05-02T22:25:02.366Z,4.42
2019-05-02T22:29:06.207Z,1.65
2019-05-02T22:33:11.770Z,4.92
2019-05-02T22:37:16.912Z,2.22
2019-05-02T22:41:22.113Z,3.20
2019-05-02T22:45:26.098Z,5.58
2019-05-02T22:49:31.686Z,2.33
2019-05-02T22:53:34.801Z,7.83
2019-05-02T22:57:38.390Z,8.05
2019-05-02T23:01:42.352Z,2.62
2019-05-02T23:05:46.113Z,3.20
2019-05-02T23:09:49.580Z,7.80
2019-05-02T23:13:53.158Z,1.87
2019-05-02T23:17:57.049Z,4.37
2019-05-02T23:22:02.120Z,6.12
2019-05-02T23:26:16.575Z,3.15
2019-05-02T23:30:22.633Z,6.70
2019-05-02T23:34:26.181Z,4.08
2019-05-02T23:38:32.210Z,4.42
2019-05-02T23:42:35.281Z,3.17
2019-05-02T23:46:39.047Z,1.30
2019-05-02T23:50:42.572Z,2.08
2019-05-02T23:54:52.035Z,4.78
2019-05-02T23:58:51.961Z,3.90
